Time;durP1;ratioP1;P1;durP2;ratioP2;P2;SDS_P1;SDS_P2;PMS_P1;PMS_P2;Temp;Humidity;BMP_temperature;BMP_pressure;BME280_temperature;BME280_humidity;BME280_pressure;Samples;Min_cycle;Max_cycle;Signal;HPM_P1;HPM_P2
2023/01/06 00:01:02;;;;;;;11.13;4.55;;;;;;;8.98;100.00;101792.09;4935359;29;20027;-77
2023/01/06 00:03:27;;;;;;;11.00;4.82;;;;;;;9.27;100.00;101821.00;4935361;29;20028;-76
2023/01/06 00:05:57;;;;;;;11.18;4.25;;;;;;;9.25;100.00;101818.50;4935382;29;20051;-77
2023/01/06 00:08:22;;;;;;;10.30;4.25;;;;;;;9.16;100.00;101805.97;4935639;29;20237;-75
2023/01/06 00:10:47;;;;;;;10.27;4.82;;;;;;;9.21;100.00;101809.19;4935265;29;20110;-76
2023/01/06 00:13:13;;;;;;;11.23;4.45;;;;;;;9.22;100.00;101803.13;4935329;29;20042;-77
2023/01/06 00:15:38;;;;;;;9.32;4.53;;;;;;;9.19;100.00;101793.78;4945570;29;20038;-74
2023/01/06 00:18:03;;;;;;;10.65;4.82;;;;;;;9.23;100.00;101799.66;4954382;29;20073;-75
2023/01/06 00:20:29;;;;;;;12.23;4.60;;;;;;;9.25;100.00;101799.63;4954474;29;20055;-76
2023/01/06 00:22:54;;;;;;;10.85;4.38;;;;;;;9.26;100.00;101798.72;4954327;29;20080;-76
2023/01/06 00:25:19;;;;;;;11.15;4.30;;;;;;;9.27;100.00;101790.91;4954263;29;20031;-75
2023/01/06 00:27:45;;;;;;;11.00;4.35;;;;;;;9.29;100.00;101793.41;4954196;29;20039;-81
2023/01/06 00:30:11;;;;;;;9.65;5.10;;;;;;;9.28;100.00;101800.31;4954388;29;20047;-77
2023/01/06 00:32:36;;;;;;;11.10;4.18;;;;;;;9.31;100.00;101795.00;4954407;29;20032;-76
2023/01/06 00:35:02;;;;;;;8.75;4.50;;;;;;;9.25;100.00;101789.31;4954450;29;20027;-77
2023/01/06 00:37:27;;;;;;;7.57;3.97;;;;;;;9.19;100.00;101767.19;4954304;29;20027;-78
2023/01/06 00:39:53;;;;;;;10.48;4.53;;;;;;;9.23;100.00;101775.63;4954601;29;20158;-76
2023/01/06 00:42:18;;;;;;;10.98;4.53;;;;;;;9.29;100.00;101785.69;4954272;29;20019;-77
2023/01/06 00:44:43;;;;;;;10.07;3.97;;;;;;;9.30;100.00;101780.47;4954268;29;20468;-75
2023/01/06 00:47:10;;;;;;;8.63;3.25;;;;;;;9.27;100.00;101772.88;4954463;29;20038;-77
2023/01/06 00:49:36;;;;;;;9.60;3.67;;;;;;;9.29;100.00;101767.63;4954490;28;20019;-75
2023/01/06 00:52:02;;;;;;;11.15;3.80;;;;;;;9.34;100.00;101781.16;4957902;29;20368;-77
2023/01/06 00:54:27;;;;;;;5.88;2.83;;;;;;;9.26;100.00;101760.88;4958001;29;20106;-75
2023/01/06 00:56:53;;;;;;;8.30;2.70;;;;;;;9.39;100.00;101785.22;4957757;29;20110;-75
2023/01/06 00:59:24;;;;;;;8.82;2.90;;;;;;;9.40;100.00;101784.31;4958059;29;20038;-75
2023/01/06 01:01:52;;;;;;;9.63;2.70;;;;;;;9.31;100.00;101769.25;4958145;29;20026;-75
2023/01/06 01:04:18;;;;;;;6.65;2.50;;;;;;;9.44;100.00;101791.03;4957964;29;20031;-76
2023/01/06 01:06:45;;;;;;;8.80;2.75;;;;;;;9.43;100.00;101780.75;4957801;29;20062;-77
2023/01/06 01:09:22;;;;;;;9.43;3.10;;;;;;;9.40;100.00;101774.00;4957899;29;20023;-74
2023/01/06 01:14:34;;;;;;;5.80;3.10;;;;;;;9.44;100.00;101792.78;4958128;29;20050;-80
2023/01/06 01:16:59;;;;;;;6.57;2.70;;;;;;;9.44;100.00;101779.88;4958193;29;20035;-79
2023/01/06 01:19:26;;;;;;;7.45;2.63;;;;;;;9.43;100.00;101789.34;4957637;29;20035;-77
2023/01/06 01:21:52;;;;;;;9.00;2.80;;;;;;;9.44;100.00;101785.88;4957698;29;20471;-78
2023/01/06 01:24:17;;;;;;;5.68;2.70;;;;;;;9.36;100.00;101782.78;4957551;29;20031;-80
2023/01/06 01:26:43;;;;;;;6.65;2.65;;;;;;;9.44;100.00;101785.03;4957175;29;20058;-78
2023/01/06 01:29:14;;;;;;;8.13;2.63;;;;;;;9.42;100.00;101786.81;4957448;29;20038;-82
2023/01/06 01:31:39;;;;;;;8.73;3.10;;;;;;;9.37;100.00;101773.31;4957445;29;20042;-78
2023/01/06 01:34:05;;;;;;;5.35;2.63;;;;;;;9.40;100.00;101776.59;4957312;29;20467;-80
2023/01/06 01:36:31;;;;;;;5.75;2.78;;;;;;;9.41;100.00;101767.94;4957380;29;20038;-77
2023/01/06 01:38:57;;;;;;;8.48;3.13;;;;;;;9.41;100.00;101769.69;4957100;29;20467;-76
2023/01/06 01:41:24;;;;;;;5.45;2.92;;;;;;;9.41;100.00;101757.63;4957179;29;20086;-80
2023/01/06 01:43:58;;;;;;;8.18;3.05;;;;;;;9.37;100.00;101747.53;4957147;29;20511;-77
2023/01/06 01:46:35;;;;;;;8.90;3.42;;;;;;;9.40;100.00;101755.97;4957298;29;20438;-81
2023/01/06 01:49:24;;;;;;;7.68;3.05;;;;;;;9.36;100.00;101744.13;4957032;29;20487;-81
2023/01/06 01:51:51;;;;;;;6.78;3.05;;;;;;;9.38;100.00;101752.63;4957025;29;20423;-81
2023/01/06 01:54:24;;;;;;;7.75;2.83;;;;;;;9.39;100.00;101750.88;4956724;29;20364;-81
2023/01/06 01:56:55;;;;;;;6.13;2.80;;;;;;;9.40;100.00;101750.81;4956800;29;20031;-81
2023/01/06 01:59:24;;;;;;;7.93;2.75;;;;;;;9.40;100.00;101750.81;4956925;29;20028;-81
2023/01/06 02:01:50;;;;;;;8.32;3.05;;;;;;;9.41;100.00;101752.47;4955800;28;20395;-81
2023/01/06 02:04:17;;;;;;;6.88;2.50;;;;;;;9.40;100.00;101747.38;4956745;29;20023;-81
2023/01/06 02:06:45;;;;;;;9.77;3.28;;;;;;;9.38;100.00;101750.03;4956658;29;20027;-81
2023/01/06 02:09:19;;;;;;;7.45;2.47;;;;;;;9.40;100.00;101747.38;4956856;29;20030;-82
2023/01/06 02:11:49;;;;;;;6.18;2.40;;;;;;;9.31;100.00;101738.31;4956587;29;20436;-81
2023/01/06 02:14:19;;;;;;;8.35;2.70;;;;;;;9.40;100.00;101761.13;4956532;29;20134;-81
2023/01/06 02:16:59;;;;;;;6.80;2.35;;;;;;;9.38;100.00;101757.78;4956755;29;20386;-81
2023/01/06 02:20:12;;;;;;;6.63;2.28;;;;;;;9.39;100.00;101749.13;4956535;29;20471;-81
2023/01/06 02:22:46;;;;;;;8.15;2.22;;;;;;;9.38;100.00;101741.47;4956511;29;20058;-81
2023/01/06 02:25:14;;;;;;;4.60;2.40;;;;;;;9.40;100.00;101740.50;4956617;29;20054;-81
2023/01/06 02:27:47;;;;;;;6.13;2.65;;;;;;;9.39;100.00;101745.72;4956167;29;20470;-80
2023/01/06 02:30:31;;;;;;;6.53;2.70;;;;;;;9.39;100.00;101738.81;4956336;29;20530;-79
2023/01/06 02:32:59;;;;;;;7.78;2.30;;;;;;;9.38;100.00;101723.44;4956080;29;20037;-81
2023/01/06 02:35:49;;;;;;;7.50;2.20;;;;;;;9.36;100.00;101726.06;4956129;29;20042;-81
2023/01/06 02:38:34;;;;;;;8.25;2.20;;;;;;;9.37;100.00;101716.59;4956248;29;20438;-81
2023/01/06 02:41:18;;;;;;;4.82;1.95;;;;;;;9.35;100.00;101715.84;4956197;29;20043;-81
2023/01/06 02:43:55;;;;;;;6.35;2.13;;;;;;;9.33;100.00;101707.31;4956090;29;20073;-80
2023/01/06 02:46:51;;;;;;;5.82;1.75;;;;;;;9.32;100.00;101701.31;4956117;29;20029;-81
2023/01/06 02:49:40;;;;;;;9.30;2.30;;;;;;;9.30;100.00;101695.41;4955999;29;20154;-75
2023/01/06 02:52:21;;;;;;;5.50;1.70;;;;;;;9.32;100.00;101688.44;4955737;29;20622;-81
2023/01/06 02:55:08;;;;;;;5.60;1.70;;;;;;;9.34;100.00;101693.50;4956018;29;20024;-79
2023/01/06 02:57:52;;;;;;;4.95;2.05;;;;;;;9.35;100.00;101684.91;4955821;29;20116;-79
2023/01/06 03:00:27;;;;;;;5.68;1.60;;;;;;;9.30;100.00;101681.69;4955798;29;20114;-79
2023/01/06 03:02:57;;;;;;;5.18;1.70;;;;;;;9.35;100.00;101688.31;4955744;29;20024;-80
2023/01/06 03:05:25;;;;;;;4.85;1.70;;;;;;;9.36;100.00;101684.00;4955793;29;20070;-78
2023/01/06 03:07:52;;;;;;;6.05;1.50;;;;;;;9.18;100.00;101652.97;4955887;29;20023;-77
2023/01/06 03:10:21;;;;;;;5.75;2.33;;;;;;;9.32;100.00;101672.97;4955639;29;20030;-79
2023/01/06 03:12:52;;;;;;;4.30;1.60;;;;;;;9.37;100.00;101680.50;4954987;28;20387;-76
2023/01/06 03:15:17;;;;;;;3.72;1.58;;;;;;;9.32;100.00;101665.22;4955559;29;20086;-76
2023/01/06 03:17:43;;;;;;;5.40;1.88;;;;;;;9.28;100.00;101658.56;4955476;29;20383;-78
2023/01/06 03:20:09;;;;;;;3.63;1.50;;;;;;;9.33;100.00;101668.66;4955612;29;20062;-79
2023/01/06 03:22:37;;;;;;;5.72;2.05;;;;;;;9.26;100.00;101650.06;4955484;29;20086;-78
2023/01/06 03:25:04;;;;;;;8.00;1.90;;;;;;;9.15;100.00;101629.91;4938656;29;20031;-79
2023/01/06 03:27:30;;;;;;;4.82;1.83;;;;;;;9.31;100.00;101653.25;4955025;29;20542;-78
2023/01/06 03:29:55;;;;;;;3.63;1.40;;;;;;;9.37;100.00;101659.88;4955179;29;20059;-79
2023/01/06 03:32:48;;;;;;;5.95;1.50;;;;;;;9.24;100.00;101640.69;4955286;29;20038;-79
2023/01/06 03:35:22;;;;;;;5.80;1.30;;;;;;;9.37;100.00;101659.88;4955633;29;20033;-81
2023/01/06 03:37:57;;;;;;;10.45;1.95;;;;;;;9.39;100.00;101648.59;4955257;29;20051;-76
2023/01/06 03:40:28;;;;;;;6.35;1.52;;;;;;;9.40;100.00;101636.53;4955123;29;20046;-75
2023/01/06 03:43:11;;;;;;;6.38;1.77;;;;;;;9.34;100.00;101629.94;4955160;29;20050;-77
2023/01/06 03:45:52;;;;;;;4.85;1.55;;;;;;;9.40;100.00;101639.13;4955003;29;20079;-78
2023/01/06 03:48:46;;;;;;;5.13;1.40;;;;;;;9.33;100.00;101637.72;4955096;29;20031;-76
2023/01/06 03:51:18;;;;;;;5.50;1.48;;;;;;;9.34;100.00;101642.81;4955204;29;20023;-77
2023/01/06 03:54:08;;;;;;;6.63;1.85;;;;;;;9.32;100.00;101630.88;4955120;29;20542;-76
2023/01/06 03:56:43;;;;;;;7.68;1.77;;;;;;;9.40;100.00;101644.28;4954929;29;20111;-74
2023/01/06 03:59:14;;;;;;;5.03;1.70;;;;;;;9.29;100.00;101626.72;4954670;29;20051;-76
2023/01/06 04:01:44;;;;;;;3.08;1.58;;;;;;;9.30;100.00;101622.41;4954947;29;20114;-81
2023/01/06 04:04:09;;;;;;;5.78;1.67;;;;;;;9.36;100.00;101619.56;4954826;29;20035;-78
2023/01/06 04:06:35;;;;;;;5.65;1.75;;;;;;;9.41;100.00;101630.47;4954822;29;20023;-76
2023/01/06 04:09:00;;;;;;;4.65;1.77;;;;;;;9.32;100.00;101610.28;4954755;29;20062;-78
2023/01/06 04:14:10;;;;;;;5.80;1.80;;;;;;;9.37;100.00;101605.75;4954916;29;20126;-77
2023/01/06 04:16:35;;;;;;;5.10;1.95;;;;;;;9.47;100.00;101617.31;4954739;29;20110;-75
2023/01/06 04:19:00;;;;;;;6.35;2.00;;;;;;;9.33;100.00;101581.00;4954702;29;20031;-75
2023/01/06 04:21:26;;;;;;;5.93;1.95;;;;;;;9.40;100.00;101597.88;4954752;29;20545;-75
2023/01/06 04:23:51;;;;;;;5.25;1.52;;;;;;;9.47;100.00;101601.84;4954865;29;20027;-76
2023/01/06 04:26:16;;;;;;;6.90;1.92;;;;;;;9.47;100.00;101599.28;4939812;29;20043;-75
2023/01/06 04:28:42;;;;;;;4.50;1.50;;;;;;;9.46;100.00;101587.28;4958179;29;20039;-74
2023/01/06 04:31:08;;;;;;;5.05;1.77;;;;;;;9.47;100.00;101594.94;4958408;29;20067;-75
2023/01/06 04:33:34;;;;;;;6.93;1.90;;;;;;;9.50;100.00;101581.06;4958394;29;20023;-75
2023/01/06 04:35:59;;;;;;;6.38;1.67;;;;;;;9.34;100.00;101555.19;4958513;29;20028;-75
2023/01/06 04:38:25;;;;;;;4.32;1.60;;;;;;;9.46;100.00;101567.50;4958345;29;20046;-74
2023/01/06 04:40:50;;;;;;;4.22;1.40;;;;;;;9.47;100.00;101563.19;4958258;29;20423;-75
2023/01/06 04:43:16;;;;;;;2.55;1.25;;;;;;;9.33;100.00;101544.91;4958299;29;20031;-79
2023/01/06 04:45:43;;;;;;;7.78;1.75;;;;;;;9.37;100.00;101573.09;4958210;29;20030;-79
2023/01/06 04:48:10;;;;;;;6.18;1.77;;;;;;;9.28;100.00;101554.63;4958319;29;20031;-75
2023/01/06 04:50:36;;;;;;;4.63;1.52;;;;;;;9.35;100.00;101559.44;4958212;29;20031;-76
2023/01/06 04:53:02;;;;;;;4.07;1.40;;;;;;;9.47;100.00;101570.91;4957948;29;20534;-75
2023/01/06 04:55:28;;;;;;;3.88;1.40;;;;;;;9.37;100.00;101559.34;4957902;29;20055;-75
2023/01/06 04:57:53;;;;;;;3.53;1.20;;;;;;;9.44;100.00;101550.44;4958047;29;20035;-76
2023/01/06 05:00:19;;;;;;;3.30;1.40;;;;;;;9.38;100.00;101542.97;4957827;29;20110;-76
2023/01/06 05:02:46;;;;;;;4.10;1.30;;;;;;;9.45;100.00;101545.22;4958025;29;20032;-75
2023/01/06 05:05:12;;;;;;;4.03;1.48;;;;;;;9.52;100.00;101560.38;4958045;29;20074;-77
2023/01/06 05:07:37;;;;;;;3.85;1.20;;;;;;;9.51;100.00;101551.81;4957916;29;20027;-74
2023/01/06 05:10:05;;;;;;;2.75;1.33;;;;;;;9.54;100.00;101549.09;4957678;29;20081;-74
2023/01/06 05:12:31;;;;;;;5.97;1.25;;;;;;;9.56;100.00;101541.28;4957581;29;20039;-74
2023/01/06 05:14:57;;;;;;;4.95;1.52;;;;;;;9.58;100.00;101544.63;4957531;29;20027;-74
2023/01/06 05:17:22;;;;;;;3.13;1.20;;;;;;;9.48;100.00;101532.16;4957612;29;20035;-76
2023/01/06 05:19:48;;;;;;;3.28;1.00;;;;;;;9.52;100.00;101538.00;4957706;29;20058;-76
2023/01/06 05:22:13;;;;;;;4.05;1.23;;;;;;;9.40;100.00;101521.38;4957791;29;20109;-74
2023/01/06 05:24:38;;;;;;;3.05;1.00;;;;;;;9.45;100.00;101523.75;4957548;29;20031;-79
2023/01/06 05:27:04;;;;;;;5.63;1.25;;;;;;;9.38;100.00;101512.06;4957398;29;20043;-80
2023/01/06 05:29:29;;;;;;;5.95;1.13;;;;;;;9.51;100.00;101545.81;4957146;29;20071;-75
2023/01/06 05:31:54;;;;;;;2.97;1.10;;;;;;;9.54;100.00;101540.50;4957533;29;20035;-80
2023/01/06 05:34:20;;;;;;;3.20;1.23;;;;;;;9.55;100.00;101543.03;4957404;29;20031;-80
2023/01/06 05:36:45;;;;;;;3.38;1.10;;;;;;;9.47;100.00;101527.91;4957114;28;20027;-76
2023/01/06 05:39:10;;;;;;;5.40;2.00;;;;;;;9.54;100.00;101537.94;4957436;29;20056;-76
2023/01/06 05:41:36;;;;;;;4.65;1.42;;;;;;;9.54;100.00;101549.09;4957302;29;20079;-76
2023/01/06 05:44:01;;;;;;;3.35;1.40;;;;;;;9.46;100.00;101534.00;4957152;29;20526;-77
2023/01/06 05:46:26;;;;;;;3.40;1.35;;;;;;;9.41;100.00;101522.22;4956997;29;20556;-79
2023/01/06 05:48:52;;;;;;;1.98;1.17;;;;;;;9.52;100.00;101538.00;4957343;29;20565;-76
2023/01/06 05:51:17;;;;;;;2.63;1.25;;;;;;;9.54;100.00;101536.22;4957050;29;20027;-79
2023/01/06 05:53:45;;;;;;;3.78;1.10;;;;;;;9.56;100.00;101538.72;4957356;29;20038;-78
2023/01/06 05:56:13;;;;;;;4.13;1.40;;;;;;;9.54;100.00;101535.34;4957001;29;20035;-76
2023/01/06 05:58:41;;;;;;;4.00;1.23;;;;;;;9.54;100.00;101540.50;4956989;29;20051;-79
2023/01/06 06:01:15;;;;;;;3.83;1.20;;;;;;;9.58;100.00;101557.53;4956700;29;20581;-76
2023/01/06 06:03:40;;;;;;;2.38;1.20;;;;;;;9.59;100.00;101551.44;4957044;29;20023;-78
2023/01/06 06:06:05;;;;;;;2.45;0.98;;;;;;;9.61;100.00;101558.19;4956492;29;20034;-79
2023/01/06 06:08:31;;;;;;;5.03;1.77;;;;;;;9.59;100.00;101551.44;4956835;29;20027;-81
2023/01/06 06:11:04;;;;;;;5.78;1.42;;;;;;;9.47;100.00;101558.84;4956782;29;20106;-80
2023/01/06 06:13:29;;;;;;;3.25;1.45;;;;;;;9.45;100.00;101557.25;4956658;29;20027;-79
2023/01/06 06:16:05;;;;;;;3.35;1.35;;;;;;;9.42;100.00;101560.81;4956543;29;20031;-77
2023/01/06 06:18:31;;;;;;;3.50;1.58;;;;;;;9.44;100.00;101559.00;4956585;29;20082;-79
2023/01/06 06:21:02;;;;;;;4.93;1.92;;;;;;;9.45;100.00;101558.09;4956589;29;20035;-78
2023/01/06 06:23:29;;;;;;;4.97;1.52;;;;;;;9.47;100.00;101556.28;4956491;29;20463;-80
2023/01/06 06:25:54;;;;;;;2.65;1.30;;;;;;;9.48;100.00;101557.13;4956519;29;20106;-80
2023/01/06 06:28:20;;;;;;;3.45;1.33;;;;;;;9.48;100.00;101554.53;4956296;29;20027;-79
2023/01/06 06:30:45;;;;;;;2.83;1.17;;;;;;;9.37;100.00;101538.75;4956457;29;20836;-79
2023/01/06 06:33:10;;;;;;;3.80;1.60;;;;;;;9.43;100.00;101544.41;4956370;29;20043;-80
2023/01/06 06:35:35;;;;;;;2.88;1.60;;;;;;;9.48;100.00;101550.22;4956434;29;20035;-80
2023/01/06 06:38:01;;;;;;;2.92;1.42;;;;;;;9.44;100.00;101534.97;4956298;29;20475;-81
2023/01/06 06:40:26;;;;;;;2.63;1.30;;;;;;;9.40;100.00;101531.69;4956243;29;20031;-80
2023/01/06 06:42:51;;;;;;;4.32;1.52;;;;;;;9.50;100.00;101547.56;4956110;29;20027;-80
2023/01/06 06:45:17;;;;;;;4.30;1.30;;;;;;;9.51;100.00;101549.22;4955886;29;20483;-79
2023/01/06 06:47:43;;;;;;;2.88;1.52;;;;;;;9.44;100.00;101537.56;4955393;28;20114;-80
2023/01/06 06:50:10;;;;;;;3.50;1.38;;;;;;;9.34;100.00;101531.13;4956294;29;20083;-80
2023/01/06 06:52:36;;;;;;;3.55;1.50;;;;;;;9.34;100.00;101539.72;4955804;29;20027;-80
2023/01/06 06:55:01;;;;;;;3.40;1.50;;;;;;;9.43;100.00;101551.31;4956007;29;20033;-79
2023/01/06 06:57:26;;;;;;;3.97;1.73;;;;;;;9.42;100.00;101557.38;4956009;29;20031;-80
2023/01/06 06:59:51;;;;;;;5.35;1.80;;;;;;;9.39;100.00;101563.53;4955675;29;20034;-80
2023/01/06 07:02:17;;;;;;;3.10;1.70;;;;;;;9.33;100.00;101563.81;4955542;29;20042;-80
2023/01/06 07:04:42;;;;;;;3.83;2.03;;;;;;;9.33;100.00;101576.69;4955811;29;20041;-82
2023/01/06 07:07:07;;;;;;;5.60;2.13;;;;;;;9.27;100.00;101565.84;4955732;29;20031;-81
2023/01/06 07:09:33;;;;;;;3.97;2.05;;;;;;;9.25;100.00;101573.66;4937881;29;20070;-81
2023/01/06 07:11:58;;;;;;;4.70;2.10;;;;;;;9.15;100.00;101560.34;4955639;29;20023;-81
2023/01/06 07:14:23;;;;;;;2.75;1.80;;;;;;;9.22;100.00;101583.25;4955566;29;20038;-80
2023/01/06 07:16:49;;;;;;;4.68;1.58;;;;;;;9.03;100.00;101557.47;4955216;29;20023;-80
2023/01/06 07:19:14;;;;;;;5.40;2.05;;;;;;;9.05;100.00;101571.13;4955500;29;20107;-80
2023/01/06 07:21:39;;;;;;;5.85;2.00;;;;;;;9.07;100.00;101579.63;4955660;29;20105;-80
2023/01/06 07:24:05;;;;;;;6.80;2.30;;;;;;;8.96;100.00;101580.09;4955427;29;20063;-78
2023/01/06 07:26:30;;;;;;;9.07;2.60;;;;;;;8.89;100.00;101571.81;4955188;29;20043;-81
2023/01/06 07:28:56;;;;;;;4.15;2.40;;;;;;;8.74;100.00;101551.03;4955247;29;20020;-79
2023/01/06 07:31:21;;;;;;;5.93;2.25;;;;;;;8.74;100.00;101561.31;4955019;29;20023;-81
2023/01/06 07:33:46;;;;;;;5.13;2.33;;;;;;;8.76;100.00;101578.41;4955392;29;20027;-80
2023/01/06 07:36:12;;;;;;;4.80;2.60;;;;;;;8.81;100.00;101586.75;4955222;29;20027;-77
2023/01/06 07:38:37;;;;;;;5.05;2.63;;;;;;;8.63;100.00;101565.19;4938147;29;20502;-78
2023/01/06 07:41:02;;;;;;;5.13;2.90;;;;;;;8.80;100.00;101600.53;4955152;29;20840;-79
2023/01/06 07:43:28;;;;;;;4.25;2.50;;;;;;;8.82;100.00;101592.72;4955245;29;20027;-79
2023/01/06 07:45:53;;;;;;;4.72;2.88;;;;;;;8.83;100.00;101584.09;4954380;29;20034;-77
2023/01/06 07:48:19;;;;;;;7.88;3.28;;;;;;;8.75;100.00;101574.16;4955467;29;20031;-70
2023/01/06 07:50:44;;;;;;;5.78;2.95;;;;;;;8.89;100.00;101592.41;4955357;29;20031;-75
2023/01/06 07:53:10;;;;;;;5.47;3.50;;;;;;;8.91;100.00;101593.16;4954698;29;20078;-77
2023/01/06 07:55:35;;;;;;;7.30;3.30;;;;;;;8.93;100.00;101605.97;4954930;29;20027;-76
2023/01/06 07:58:05;;;;;;;6.97;3.70;;;;;;;8.79;100.00;101586.00;5007575;23;20051;-75
2023/01/06 08:00:30;;;;;;;4.05;3.03;;;;;;;8.93;100.00;101603.41;4954583;28;20028;-77
2023/01/06 08:02:55;;;;;;;8.38;3.45;;;;;;;8.91;100.00;101621.50;4954504;29;20930;-76
2023/01/06 08:05:21;;;;;;;8.27;3.28;;;;;;;8.87;100.00;101619.13;4954530;29;20031;-77
2023/01/06 08:07:46;;;;;;;7.35;3.78;;;;;;;8.85;100.00;101620.97;4954773;29;20030;-78
2023/01/06 08:10:12;;;;;;;6.60;3.38;;;;;;;8.85;100.00;101626.09;4954708;29;20043;-80
2023/01/06 08:12:37;;;;;;;4.82;3.40;;;;;;;8.85;100.00;101628.69;4954322;29;20039;-78
2023/01/06 08:15:03;;;;;;;5.63;3.95;;;;;;;8.67;100.00;101601.97;4954599;29;20106;-76
2023/01/06 08:17:29;;;;;;;6.88;3.60;;;;;;;8.81;100.00;101617.66;4954328;29;20016;-76
2023/01/06 08:19:54;;;;;;;5.43;3.83;;;;;;;8.67;100.00;101583.94;4954590;29;20032;-76
2023/01/06 08:22:20;;;;;;;6.82;4.43;;;;;;;9.02;100.00;101630.50;4954545;29;20431;-77
2023/01/06 08:24:45;;;;;;;7.28;4.63;;;;;;;8.96;100.00;101618.75;4954456;29;20472;-76
2023/01/06 08:27:10;;;;;;;5.90;4.38;;;;;;;9.05;100.00;101617.50;4937257;29;20079;-79
2023/01/06 08:29:36;;;;;;;6.38;4.30;;;;;;;9.14;100.00;101635.97;4954536;29;20027;-79
2023/01/06 08:32:01;;;;;;;6.95;4.60;;;;;;;9.22;100.00;101651.06;4954319;29;20027;-77
2023/01/06 08:34:26;;;;;;;7.20;5.15;;;;;;;9.22;100.00;101642.50;4954361;29;20098;-79
2023/01/06 08:36:52;;;;;;;8.00;5.45;;;;;;;9.22;100.00;101650.25;4954495;29;20028;-78
2023/01/06 08:39:17;;;;;;;7.63;5.30;;;;;;;9.25;100.00;101670.75;4939595;29;20032;-72
2023/01/06 08:41:43;;;;;;;9.50;6.50;;;;;;;9.29;100.00;101680.00;4936119;29;20391;-73
2023/01/06 08:44:08;;;;;;;9.15;5.60;;;;;;;9.33;100.00;101672.06;4935239;29;20047;-75
2023/01/06 08:46:33;;;;;;;8.18;5.95;;;;;;;9.39;100.00;101678.69;4935190;29;20055;-74
2023/01/06 08:48:59;;;;;;;9.40;5.85;;;;;;;9.42;100.00;101686.28;4934694;29;20046;-76
2023/01/06 08:51:25;;;;;;;9.35;6.03;;;;;;;9.43;100.00;101678.47;4935269;29;20043;-71
2023/01/06 08:53:52;;;;;;;9.15;6.65;;;;;;;9.37;100.00;101670.19;4934923;29;20028;-77
2023/01/06 08:56:23;;;;;;;8.73;6.63;;;;;;;9.46;100.00;101685.25;4935383;29;20035;-77
2023/01/06 08:58:53;;;;;;;8.80;6.65;;;;;;;9.50;100.00;101699.69;4935116;29;20047;-75
2023/01/06 09:01:23;;;;;;;8.90;6.40;;;;;;;9.52;100.00;101694.44;4918068;29;20074;-72
2023/01/06 09:03:49;;;;;;;9.45;6.57;;;;;;;9.51;100.00;101693.59;4934902;29;20035;-75
2023/01/06 09:06:15;;;;;;;9.00;6.90;;;;;;;9.51;100.00;101695.34;4918220;29;20431;-75
2023/01/06 09:08:40;;;;;;;8.70;6.70;;;;;;;9.47;100.00;101703.22;4934722;29;20379;-77
2023/01/06 09:11:08;;;;;;;9.77;7.10;;;;;;;9.50;100.00;101702.25;4935991;29;20107;-78
2023/01/06 09:13:34;;;;;;;10.75;7.13;;;;;;;9.44;100.00;101690.50;4938431;29;20547;-73
2023/01/06 09:16:01;;;;;;;9.57;7.35;;;;;;;9.53;100.00;101703.84;4938645;29;20031;-75
2023/01/06 09:18:26;;;;;;;10.57;7.65;;;;;;;9.41;100.00;101669.97;4938362;29;20030;-77
2023/01/06 09:20:51;;;;;;;10.15;7.47;;;;;;;9.66;100.00;101708.41;4938516;29;20107;-74
2023/01/06 09:23:17;;;;;;;10.48;7.45;;;;;;;9.73;100.00;101714.97;4938426;29;20036;-75
2023/01/06 09:25:42;;;;;;;11.15;7.10;;;;;;;9.86;100.00;101724.72;4921166;29;20400;-76
2023/01/06 09:28:09;;;;;;;8.60;6.57;;;;;;;9.99;100.00;101726.66;4921276;29;20483;-76
2023/01/06 09:30:34;;;;;;;9.77;6.82;;;;;;;10.10;100.00;101727.91;4938178;29;20035;-76
2023/01/06 09:33:00;;;;;;;10.98;7.00;;;;;;;10.04;100.00;101716.97;4921079;29;20044;-76
2023/01/06 09:35:25;;;;;;;9.48;6.43;;;;;;;10.15;100.00;101737.13;4938059;29;20432;-75
2023/01/06 09:37:51;;;;;;;11.90;6.55;;;;;;;10.14;100.00;101740.63;4938067;29;20027;-76
2023/01/06 09:40:21;;;;;;;9.23;6.85;;;;;;;10.10;100.00;101745.97;4921084;29;20127;-75
2023/01/06 09:43:28;;;;;;;9.55;6.57;;;;;;;10.06;100.00;101742.72;4938194;29;20024;-75
2023/01/06 09:46:00;;;;;;;7.72;6.65;;;;;;;9.92;100.00;101737.31;4898016;29;20036;-78
2023/01/06 09:48:31;;;;;;;9.52;6.75;;;;;;;9.97;100.00;101750.88;4897968;29;20056;-80
2023/01/06 09:50:59;;;;;;;;;;;;;;;10.01;100.00;101760.97;4898231;29;20047;-77
2023/01/06 09:53:30;;;;;;;9.80;7.25;;;;;;;9.95;100.00;101763.84;4897877;29;19924;-80
2023/01/06 09:56:00;;;;;;;10.55;7.07;;;;;;;10.01;100.00;101776.44;4897923;29;20421;-79
2023/01/06 09:58:34;;;;;;;12.43;7.85;;;;;;;10.13;100.00;101780.25;4881547;29;20091;-79
2023/01/06 10:01:05;;;;;;;9.20;7.05;;;;;;;10.09;100.00;101759.78;4897718;29;20046;-79
2023/01/06 10:03:31;;;;;;;10.13;6.55;;;;;;;10.28;100.00;101758.06;4897476;29;20044;-79
2023/01/06 10:06:24;;;;;;;9.43;6.68;;;;;;;10.50;100.00;101769.03;4881959;29;20032;-78
2023/01/06 10:09:23;;;;;;;10.88;6.90;;;;;;;10.60;100.00;101778.03;4897704;29;20092;-83
2023/01/06 10:12:07;;;;;;;8.82;5.40;;;;;;;10.71;100.00;101774.91;4897699;29;20032;-81
2023/01/06 10:14:43;;;;;;;7.78;5.32;;;;;;;10.90;100.00;101772.28;4897654;29;20040;-81
2023/01/06 10:17:17;;;;;;;10.32;6.00;;;;;;;11.10;100.00;101764.38;4926495;29;20046;-81
2023/01/06 10:20:04;;;;;;;9.32;4.97;;;;;;;11.26;100.00;101779.13;4937021;29;20043;-82
2023/01/06 10:22:44;;;;;;;9.60;5.40;;;;;;;11.43;100.00;101768.75;4936413;29;20384;-81
2023/01/06 10:25:20;;;;;;;9.95;5.32;;;;;;;11.48;100.00;101767.59;4937075;29;20106;-80
2023/01/06 10:28:08;;;;;;;10.75;4.43;;;;;;;11.58;98.34;101764.53;4936074;29;20028;-81
2023/01/06 10:30:42;;;;;;;11.82;4.25;;;;;;;11.71;95.95;101769.00;4936841;29;20110;-77
2023/01/06 10:33:24;;;;;;;7.00;3.17;;;;;;;11.67;93.92;101772.66;4936841;29;20035;-82
2023/01/06 10:35:51;;;;;;;8.73;3.60;;;;;;;11.44;93.31;101754.91;4937021;29;20031;-82
2023/01/06 10:38:21;;;;;;;9.05;2.95;;;;;;;11.36;93.12;101772.56;4954303;29;20380;-80
2023/01/06 10:40:47;;;;;;;7.70;3.50;;;;;;;11.20;94.65;101770.75;4956023;29;20054;-80
2023/01/06 10:43:13;;;;;;;6.10;3.10;;;;;;;11.11;95.89;101770.38;4939118;29;20114;-80
2023/01/06 10:45:43;;;;;;;8.75;3.50;;;;;;;11.08;96.44;101775.69;4955839;29;20034;-83
2023/01/06 10:48:15;;;;;;;8.25;3.38;;;;;;;11.10;97.11;101761.78;4955770;29;20027;-82
2023/01/06 10:50:41;;;;;;;7.47;2.90;;;;;;;11.33;96.48;101780.50;4955615;29;20035;-78
2023/01/06 10:53:10;;;;;;;11.32;3.17;;;;;;;11.58;93.60;101780.06;4955710;29;20027;-75
2023/01/06 10:55:35;;;;;;;10.90;2.50;;;;;;;11.71;91.07;101778.53;4956278;29;20034;-77
2023/01/06 10:58:21;;;;;;;6.13;2.40;;;;;;;11.67;90.29;101775.22;4956130;28;20055;-75
2023/01/06 11:01:17;;;;;;;8.75;2.53;;;;;;;11.51;90.27;101779.56;4955533;29;20039;-76
2023/01/06 11:03:44;;;;;;;7.00;1.98;;;;;;;11.27;87.56;101781.63;4954167;29;20098;-74
2023/01/06 11:06:15;;;;;;;9.75;2.53;;;;;;;11.06;90.04;101778.38;4955660;29;20027;-77
2023/01/06 11:08:41;;;;;;;6.88;1.75;;;;;;;10.77;90.75;101750.53;4955639;29;20027;-82
2023/01/06 11:11:17;;;;;;;7.63;2.22;;;;;;;10.67;92.16;101763.06;4955396;29;20046;-81
2023/01/06 11:13:52;;;;;;;8.60;2.20;;;;;;;10.71;93.23;101781.84;4955752;29;20427;-79
2023/01/06 11:16:30;;;;;;;8.93;2.45;;;;;;;10.65;93.77;101777.81;4955470;29;20168;-79
2023/01/06 11:19:04;;;;;;;8.05;2.92;;;;;;;10.41;93.95;101743.66;4955250;29;20118;-78
2023/01/06 11:21:47;;;;;;;9.25;2.58;;;;;;;10.41;94.46;101743.66;4955312;29;20043;-78
2023/01/06 11:24:22;;;;;;;11.20;3.20;;;;;;;10.49;94.59;101782.03;4945182;29;20034;-77
2023/01/06 11:26:59;;;;;;;11.35;3.08;;;;;;;10.44;95.19;101766.78;4936174;29;20036;-77
2023/01/06 11:29:29;;;;;;;13.95;3.75;;;;;;;10.45;95.89;101772.78;4936066;29;20028;-76
2023/01/06 11:31:56;;;;;;;7.32;2.80;;;;;;;10.48;95.46;101770.88;4935821;29;20141;-75
2023/01/06 11:34:24;;;;;;;9.75;2.80;;;;;;;10.49;95.69;101767.38;4935747;29;20039;-78
2023/01/06 11:36:51;;;;;;;11.07;2.85;;;;;;;10.43;95.40;101747.03;4935912;29;20016;-81
2023/01/06 11:39:36;;;;;;;10.95;3.55;;;;;;;10.68;95.09;101774.25;4935792;29;20055;-81